sensor_id;sensor_type;location;lat;lon;timestamp;P1;durP1;ratioP1;P2;durP2;ratioP2
5171;SDS011;2605;49.770;9.868;2023-11-21T00:00:12;3.87;;;2.37;;
5171;SDS011;2605;49.770;9.868;2023-11-21T00:02:39;5.97;;;2.40;;
5171;SDS011;2605;49.770;9.868;2023-11-21T00:05:06;3.50;;;2.20;;
5171;SDS011;2605;49.770;9.868;2023-11-21T00:07:36;3.60;;;3.30;;
5171;SDS011;2605;49.770;9.868;2023-11-21T00:10:02;10.73;;;2.83;;
5171;SDS011;2605;49.770;9.868;2023-11-21T00:12:33;6.60;;;2.90;;
5171;SDS011;2605;49.770;9.868;2023-11-21T00:14:58;4.80;;;3.23;;
5171;SDS011;2605;49.770;9.868;2023-11-21T00:17:24;4.03;;;3.00;;
5171;SDS011;2605;49.770;9.868;2023-11-21T00:19:50;4.50;;;2.57;;
5171;SDS011;2605;49.770;9.868;2023-11-21T00:22:17;3.80;;;3.10;;
5171;SDS011;2605;49.770;9.868;2023-11-21T00:24:43;5.27;;;2.97;;
5171;SDS011;2605;49.770;9.868;2023-11-21T00:27:09;6.00;;;3.23;;
5171;SDS011;2605;49.770;9.868;2023-11-21T00:29:35;2.50;;;2.30;;
5171;SDS011;2605;49.770;9.868;2023-11-21T00:32:00;4.00;;;3.10;;
5171;SDS011;2605;49.770;9.868;2023-11-21T00:34:26;6.93;;;2.80;;
5171;SDS011;2605;49.770;9.868;2023-11-21T00:36:52;4.20;;;3.50;;
5171;SDS011;2605;49.770;9.868;2023-11-21T00:39:17;5.07;;;2.40;;
5171;SDS011;2605;49.770;9.868;2023-11-21T00:41:43;3.13;;;2.57;;
5171;SDS011;2605;49.770;9.868;2023-11-21T00:44:09;3.67;;;2.83;;
5171;SDS011;2605;49.770;9.868;2023-11-21T00:46:35;4.63;;;2.80;;
5171;SDS011;2605;49.770;9.868;2023-11-21T00:49:01;2.80;;;2.60;;
5171;SDS011;2605;49.770;9.868;2023-11-21T00:51:29;2.10;;;2.00;;
5171;SDS011;2605;49.770;9.868;2023-11-21T00:53:54;3.67;;;2.50;;
5171;SDS011;2605;49.770;9.868;2023-11-21T00:56:20;3.60;;;2.77;;
5171;SDS011;2605;49.770;9.868;2023-11-21T00:58:46;5.00;;;2.47;;
5171;SDS011;2605;49.770;9.868;2023-11-21T01:01:14;4.17;;;2.70;;
5171;SDS011;2605;49.770;9.868;2023-11-21T01:03:43;2.67;;;2.40;;
5171;SDS011;2605;49.770;9.868;2023-11-21T01:06:11;2.43;;;1.97;;
5171;SDS011;2605;49.770;9.868;2023-11-21T01:08:36;2.60;;;2.40;;
5171;SDS011;2605;49.770;9.868;2023-11-21T01:11:02;4.57;;;2.70;;
5171;SDS011;2605;49.770;9.868;2023-11-21T01:13:28;3.47;;;2.60;;
5171;SDS011;2605;49.770;9.868;2023-11-21T01:15:54;3.57;;;2.70;;
5171;SDS011;2605;49.770;9.868;2023-11-21T01:18:20;4.63;;;3.83;;
5171;SDS011;2605;49.770;9.868;2023-11-21T01:20:46;2.73;;;2.40;;
5171;SDS011;2605;49.770;9.868;2023-11-21T01:23:12;3.93;;;2.60;;
5171;SDS011;2605;49.770;9.868;2023-11-21T01:25:38;4.30;;;3.13;;
5171;SDS011;2605;49.770;9.868;2023-11-21T01:28:03;5.57;;;2.80;;
5171;SDS011;2605;49.770;9.868;2023-11-21T01:30:29;6.23;;;2.90;;
5171;SDS011;2605;49.770;9.868;2023-11-21T01:32:54;2.40;;;2.20;;
5171;SDS011;2605;49.770;9.868;2023-11-21T01:35:23;3.57;;;2.90;;
5171;SDS011;2605;49.770;9.868;2023-11-21T01:37:48;6.03;;;2.97;;
5171;SDS011;2605;49.770;9.868;2023-11-21T01:40:14;6.17;;;2.63;;
5171;SDS011;2605;49.770;9.868;2023-11-21T01:42:40;4.40;;;3.10;;
5171;SDS011;2605;49.770;9.868;2023-11-21T01:45:08;4.43;;;3.10;;
5171;SDS011;2605;49.770;9.868;2023-11-21T01:47:34;11.33;;;2.90;;
5171;SDS011;2605;49.770;9.868;2023-11-21T01:50:01;2.60;;;2.30;;
5171;SDS011;2605;49.770;9.868;2023-11-21T01:52:29;3.80;;;2.47;;
5171;SDS011;2605;49.770;9.868;2023-11-21T01:54:55;5.90;;;2.87;;
5171;SDS011;2605;49.770;9.868;2023-11-21T01:57:22;4.40;;;3.20;;
5171;SDS011;2605;49.770;9.868;2023-11-21T01:59:48;5.70;;;3.10;;
5171;SDS011;2605;49.770;9.868;2023-11-21T02:02:15;3.13;;;2.63;;
5171;SDS011;2605;49.770;9.868;2023-11-21T02:04:41;4.50;;;2.73;;
5171;SDS011;2605;49.770;9.868;2023-11-21T02:07:07;4.70;;;3.17;;
5171;SDS011;2605;49.770;9.868;2023-11-21T02:09:32;2.63;;;2.43;;
5171;SDS011;2605;49.770;9.868;2023-11-21T02:11:58;3.97;;;2.53;;
5171;SDS011;2605;49.770;9.868;2023-11-21T02:14:27;4.77;;;2.83;;
5171;SDS011;2605;49.770;9.868;2023-11-21T02:16:54;5.67;;;3.13;;
5171;SDS011;2605;49.770;9.868;2023-11-21T02:19:21;8.10;;;3.53;;
5171;SDS011;2605;49.770;9.868;2023-11-21T02:21:53;5.33;;;2.90;;
5171;SDS011;2605;49.770;9.868;2023-11-21T02:24:25;6.20;;;2.40;;
5171;SDS011;2605;49.770;9.868;2023-11-21T02:26:53;4.73;;;2.67;;
5171;SDS011;2605;49.770;9.868;2023-11-21T02:29:19;2.70;;;2.50;;
5171;SDS011;2605;49.770;9.868;2023-11-21T02:31:47;3.57;;;2.90;;
5171;SDS011;2605;49.770;9.868;2023-11-21T02:34:16;4.10;;;3.07;;
5171;SDS011;2605;49.770;9.868;2023-11-21T02:36:43;6.30;;;2.00;;
5171;SDS011;2605;49.770;9.868;2023-11-21T02:39:09;5.33;;;2.63;;
5171;SDS011;2605;49.770;9.868;2023-11-21T02:41:36;4.50;;;2.93;;
5171;SDS011;2605;49.770;9.868;2023-11-21T02:44:03;12.23;;;3.63;;
5171;SDS011;2605;49.770;9.868;2023-11-21T02:46:32;2.70;;;2.43;;
5171;SDS011;2605;49.770;9.868;2023-11-21T02:49:02;7.87;;;2.60;;
5171;SDS011;2605;49.770;9.868;2023-11-21T02:51:28;3.93;;;2.60;;
5171;SDS011;2605;49.770;9.868;2023-11-21T02:53:57;4.47;;;2.70;;
5171;SDS011;2605;49.770;9.868;2023-11-21T02:56:24;4.23;;;2.90;;
5171;SDS011;2605;49.770;9.868;2023-11-21T02:58:51;4.83;;;3.17;;
5171;SDS011;2605;49.770;9.868;2023-11-21T03:01:17;4.47;;;3.50;;
5171;SDS011;2605;49.770;9.868;2023-11-21T03:03:42;7.20;;;2.90;;
5171;SDS011;2605;49.770;9.868;2023-11-21T03:06:08;5.03;;;3.30;;
5171;SDS011;2605;49.770;9.868;2023-11-21T03:08:34;4.90;;;3.30;;
5171;SDS011;2605;49.770;9.868;2023-11-21T03:11:00;3.10;;;2.90;;
5171;SDS011;2605;49.770;9.868;2023-11-21T03:13:27;2.93;;;2.63;;
5171;SDS011;2605;49.770;9.868;2023-11-21T03:15:53;4.80;;;3.00;;
5171;SDS011;2605;49.770;9.868;2023-11-21T03:18:19;3.03;;;2.53;;
5171;SDS011;2605;49.770;9.868;2023-11-21T03:20:51;5.63;;;3.20;;
5171;SDS011;2605;49.770;9.868;2023-11-21T03:23:17;2.77;;;2.57;;
5171;SDS011;2605;49.770;9.868;2023-11-21T03:25:43;4.20;;;3.33;;
5171;SDS011;2605;49.770;9.868;2023-11-21T03:28:08;6.43;;;2.20;;
5171;SDS011;2605;49.770;9.868;2023-11-21T03:30:34;6.13;;;2.87;;
5171;SDS011;2605;49.770;9.868;2023-11-21T03:32:59;3.93;;;3.13;;
5171;SDS011;2605;49.770;9.868;2023-11-21T03:35:25;4.20;;;2.70;;
5171;SDS011;2605;49.770;9.868;2023-11-21T03:37:51;8.67;;;2.90;;
5171;SDS011;2605;49.770;9.868;2023-11-21T03:40:17;2.70;;;2.50;;
5171;SDS011;2605;49.770;9.868;2023-11-21T03:42:42;3.23;;;2.83;;
5171;SDS011;2605;49.770;9.868;2023-11-21T03:45:08;4.07;;;2.83;;
5171;SDS011;2605;49.770;9.868;2023-11-21T03:47:34;3.93;;;2.53;;
5171;SDS011;2605;49.770;9.868;2023-11-21T03:49:59;3.17;;;2.63;;
5171;SDS011;2605;49.770;9.868;2023-11-21T03:52:25;4.27;;;2.97;;
5171;SDS011;2605;49.770;9.868;2023-11-21T03:54:50;3.20;;;2.90;;
5171;SDS011;2605;49.770;9.868;2023-11-21T03:57:16;4.40;;;3.00;;
5171;SDS011;2605;49.770;9.868;2023-11-21T03:59:42;2.63;;;2.43;;
5171;SDS011;2605;49.770;9.868;2023-11-21T04:02:08;9.20;;;2.77;;
5171;SDS011;2605;49.770;9.868;2023-11-21T04:04:34;9.70;;;3.20;;
5171;SDS011;2605;49.770;9.868;2023-11-21T04:07:00;3.53;;;2.37;;
5171;SDS011;2605;49.770;9.868;2023-11-21T04:09:25;2.40;;;2.17;;
5171;SDS011;2605;49.770;9.868;2023-11-21T04:11:51;6.53;;;2.57;;
5171;SDS011;2605;49.770;9.868;2023-11-21T04:14:17;2.23;;;2.03;;
5171;SDS011;2605;49.770;9.868;2023-11-21T04:16:43;3.23;;;2.50;;
5171;SDS011;2605;49.770;9.868;2023-11-21T04:19:08;3.47;;;2.53;;
5171;SDS011;2605;49.770;9.868;2023-11-21T04:21:35;4.23;;;3.57;;
5171;SDS011;2605;49.770;9.868;2023-11-21T04:24:01;3.20;;;2.90;;
5171;SDS011;2605;49.770;9.868;2023-11-21T04:26:26;4.80;;;2.60;;
5171;SDS011;2605;49.770;9.868;2023-11-21T04:28:52;4.47;;;2.63;;
5171;SDS011;2605;49.770;9.868;2023-11-21T04:31:17;11.63;;;2.87;;
5171;SDS011;2605;49.770;9.868;2023-11-21T04:33:43;3.00;;;2.80;;
5171;SDS011;2605;49.770;9.868;2023-11-21T04:36:09;4.90;;;3.10;;
5171;SDS011;2605;49.770;9.868;2023-11-21T04:38:35;4.57;;;3.87;;
5171;SDS011;2605;49.770;9.868;2023-11-21T04:41:01;3.60;;;3.30;;
5171;SDS011;2605;49.770;9.868;2023-11-21T04:43:26;6.20;;;2.60;;
5171;SDS011;2605;49.770;9.868;2023-11-21T04:45:52;13.97;;;2.97;;
5171;SDS011;2605;49.770;9.868;2023-11-21T04:48:17;3.00;;;2.77;;
5171;SDS011;2605;49.770;9.868;2023-11-21T04:50:43;4.57;;;2.70;;
5171;SDS011;2605;49.770;9.868;2023-11-21T04:53:08;5.60;;;3.43;;
5171;SDS011;2605;49.770;9.868;2023-11-21T04:55:34;7.50;;;4.00;;
5171;SDS011;2605;49.770;9.868;2023-11-21T04:57:59;6.00;;;3.80;;
5171;SDS011;2605;49.770;9.868;2023-11-21T05:00:24;4.60;;;4.20;;
5171;SDS011;2605;49.770;9.868;2023-11-21T05:02:50;10.43;;;4.60;;
5171;SDS011;2605;49.770;9.868;2023-11-21T05:05:16;8.20;;;3.67;;
5171;SDS011;2605;49.770;9.868;2023-11-21T05:07:41;3.60;;;3.30;;
5171;SDS011;2605;49.770;9.868;2023-11-21T05:10:08;5.33;;;3.90;;
5171;SDS011;2605;49.770;9.868;2023-11-21T05:12:36;3.83;;;3.43;;
5171;SDS011;2605;49.770;9.868;2023-11-21T05:15:03;3.80;;;3.00;;
5171;SDS011;2605;49.770;9.868;2023-11-21T05:17:39;9.33;;;3.80;;
5171;SDS011;2605;49.770;9.868;2023-11-21T05:20:07;4.27;;;3.97;;
5171;SDS011;2605;49.770;9.868;2023-11-21T05:22:35;4.93;;;3.47;;
5171;SDS011;2605;49.770;9.868;2023-11-21T05:25:01;6.53;;;3.50;;
5171;SDS011;2605;49.770;9.868;2023-11-21T05:27:28;10.17;;;3.70;;
5171;SDS011;2605;49.770;9.868;2023-11-21T05:29:55;5.60;;;3.70;;
5171;SDS011;2605;49.770;9.868;2023-11-21T05:32:20;4.73;;;3.57;;
5171;SDS011;2605;49.770;9.868;2023-11-21T05:34:46;7.93;;;4.20;;
5171;SDS011;2605;49.770;9.868;2023-11-21T05:37:11;4.63;;;3.90;;
5171;SDS011;2605;49.770;9.868;2023-11-21T05:39:37;7.83;;;5.40;;
5171;SDS011;2605;49.770;9.868;2023-11-21T05:42:02;7.27;;;6.50;;
5171;SDS011;2605;49.770;9.868;2023-11-21T05:44:29;7.00;;;5.37;;
5171;SDS011;2605;49.770;9.868;2023-11-21T05:46:54;6.53;;;4.97;;
5171;SDS011;2605;49.770;9.868;2023-11-21T05:49:20;13.37;;;7.07;;
5171;SDS011;2605;49.770;9.868;2023-11-21T05:51:51;18.23;;;6.90;;
5171;SDS011;2605;49.770;9.868;2023-11-21T05:54:18;7.07;;;5.83;;
5171;SDS011;2605;49.770;9.868;2023-11-21T05:56:44;7.60;;;6.40;;
5171;SDS011;2605;49.770;9.868;2023-11-21T05:59:10;7.43;;;5.73;;
5171;SDS011;2605;49.770;9.868;2023-11-21T06:01:38;7.60;;;5.87;;
5171;SDS011;2605;49.770;9.868;2023-11-21T06:04:04;9.07;;;5.70;;
5171;SDS011;2605;49.770;9.868;2023-11-21T06:06:30;11.43;;;7.00;;
5171;SDS011;2605;49.770;9.868;2023-11-21T06:08:56;8.17;;;6.10;;
5171;SDS011;2605;49.770;9.868;2023-11-21T06:11:22;17.13;;;7.53;;
5171;SDS011;2605;49.770;9.868;2023-11-21T06:13:47;11.50;;;6.93;;
5171;SDS011;2605;49.770;9.868;2023-11-21T06:16:13;7.90;;;6.57;;
5171;SDS011;2605;49.770;9.868;2023-11-21T06:18:43;8.50;;;7.10;;
5171;SDS011;2605;49.770;9.868;2023-11-21T06:21:09;8.30;;;7.30;;
5171;SDS011;2605;49.770;9.868;2023-11-21T06:23:35;7.23;;;6.53;;
5171;SDS011;2605;49.770;9.868;2023-11-21T06:26:01;20.53;;;6.40;;
5171;SDS011;2605;49.770;9.868;2023-11-21T06:28:26;9.70;;;5.63;;
5171;SDS011;2605;49.770;9.868;2023-11-21T06:30:54;9.70;;;4.83;;
5171;SDS011;2605;49.770;9.868;2023-11-21T06:33:19;7.73;;;4.90;;
5171;SDS011;2605;49.770;9.868;2023-11-21T06:35:46;12.47;;;5.33;;
5171;SDS011;2605;49.770;9.868;2023-11-21T06:38:12;11.57;;;5.07;;
5171;SDS011;2605;49.770;9.868;2023-11-21T06:40:37;5.70;;;4.53;;
5171;SDS011;2605;49.770;9.868;2023-11-21T06:43:03;9.23;;;4.23;;
5171;SDS011;2605;49.770;9.868;2023-11-21T06:45:29;7.23;;;5.30;;
5171;SDS011;2605;49.770;9.868;2023-11-21T06:47:55;10.23;;;4.57;;
5171;SDS011;2605;49.770;9.868;2023-11-21T06:50:20;5.13;;;4.27;;
5171;SDS011;2605;49.770;9.868;2023-11-21T06:52:46;5.17;;;3.87;;
5171;SDS011;2605;49.770;9.868;2023-11-21T06:55:12;5.30;;;4.53;;
5171;SDS011;2605;49.770;9.868;2023-11-21T06:57:38;6.83;;;4.80;;
5171;SDS011;2605;49.770;9.868;2023-11-21T07:00:03;12.07;;;4.57;;
5171;SDS011;2605;49.770;9.868;2023-11-21T07:02:30;5.13;;;4.57;;
5171;SDS011;2605;49.770;9.868;2023-11-21T07:04:56;8.60;;;5.03;;
5171;SDS011;2605;49.770;9.868;2023-11-21T07:07:21;6.00;;;4.87;;
5171;SDS011;2605;49.770;9.868;2023-11-21T07:09:47;5.97;;;5.43;;
5171;SDS011;2605;49.770;9.868;2023-11-21T07:12:13;6.90;;;6.00;;
5171;SDS011;2605;49.770;9.868;2023-11-21T07:14:39;10.30;;;7.13;;
5171;SDS011;2605;49.770;9.868;2023-11-21T07:17:08;12.23;;;7.03;;
5171;SDS011;2605;49.770;9.868;2023-11-21T07:19:33;11.17;;;8.33;;
5171;SDS011;2605;49.770;9.868;2023-11-21T07:21:59;12.97;;;9.43;;
5171;SDS011;2605;49.770;9.868;2023-11-21T07:24:27;12.17;;;8.30;;
5171;SDS011;2605;49.770;9.868;2023-11-21T07:26:53;24.07;;;10.87;;
5171;SDS011;2605;49.770;9.868;2023-11-21T07:29:21;12.03;;;8.83;;
5171;SDS011;2605;49.770;9.868;2023-11-21T07:31:48;15.73;;;9.60;;
5171;SDS011;2605;49.770;9.868;2023-11-21T07:34:17;16.00;;;9.13;;
5171;SDS011;2605;49.770;9.868;2023-11-21T07:36:43;15.80;;;9.97;;
5171;SDS011;2605;49.770;9.868;2023-11-21T07:39:09;19.93;;;10.73;;
5171;SDS011;2605;49.770;9.868;2023-11-21T07:41:35;14.07;;;10.93;;
5171;SDS011;2605;49.770;9.868;2023-11-21T07:44:00;43.77;;;11.50;;
5171;SDS011;2605;49.770;9.868;2023-11-21T07:46:26;29.13;;;11.80;;
5171;SDS011;2605;49.770;9.868;2023-11-21T07:48:52;24.77;;;12.63;;
5171;SDS011;2605;49.770;9.868;2023-11-21T07:51:18;17.10;;;9.17;;
5171;SDS011;2605;49.770;9.868;2023-11-21T07:53:44;14.87;;;11.07;;
5171;SDS011;2605;49.770;9.868;2023-11-21T07:56:09;18.70;;;10.27;;
5171;SDS011;2605;49.770;9.868;2023-11-21T07:58:35;14.83;;;10.33;;
5171;SDS011;2605;49.770;9.868;2023-11-21T08:01:01;22.20;;;10.77;;
5171;SDS011;2605;49.770;9.868;2023-11-21T08:03:28;23.70;;;11.37;;
5171;SDS011;2605;49.770;9.868;2023-11-21T08:05:57;16.90;;;11.50;;
5171;SDS011;2605;49.770;9.868;2023-11-21T08:08:23;18.43;;;10.80;;
5171;SDS011;2605;49.770;9.868;2023-11-21T08:10:49;12.70;;;9.20;;
5171;SDS011;2605;49.770;9.868;2023-11-21T08:13:24;22.93;;;9.43;;
5171;SDS011;2605;49.770;9.868;2023-11-21T08:15:53;16.93;;;10.50;;
5171;SDS011;2605;49.770;9.868;2023-11-21T08:18:19;18.27;;;11.50;;
5171;SDS011;2605;49.770;9.868;2023-11-21T08:20:44;14.50;;;9.30;;
5171;SDS011;2605;49.770;9.868;2023-11-21T08:23:12;17.57;;;11.13;;
5171;SDS011;2605;49.770;9.868;2023-11-21T08:25:40;18.30;;;10.40;;
5171;SDS011;2605;49.770;9.868;2023-11-21T08:28:07;14.70;;;8.80;;
5171;SDS011;2605;49.770;9.868;2023-11-21T08:30:32;13.17;;;8.87;;
5171;SDS011;2605;49.770;9.868;2023-11-21T08:32:59;18.10;;;9.20;;
5171;SDS011;2605;49.770;9.868;2023-11-21T08:35:25;17.90;;;8.93;;
5171;SDS011;2605;49.770;9.868;2023-11-21T08:37:51;15.90;;;9.90;;
5171;SDS011;2605;49.770;9.868;2023-11-21T08:40:17;15.77;;;11.43;;
5171;SDS011;2605;49.770;9.868;2023-11-21T08:42:44;38.93;;;12.20;;
5171;SDS011;2605;49.770;9.868;2023-11-21T08:45:10;17.23;;;10.67;;
5171;SDS011;2605;49.770;9.868;2023-11-21T08:47:37;14.40;;;9.93;;
5171;SDS011;2605;49.770;9.868;2023-11-21T08:50:03;22.50;;;11.70;;
5171;SDS011;2605;49.770;9.868;2023-11-21T08:52:31;20.40;;;11.83;;
5171;SDS011;2605;49.770;9.868;2023-11-21T08:54:56;14.50;;;10.53;;
5171;SDS011;2605;49.770;9.868;2023-11-21T08:57:22;20.03;;;12.03;;
5171;SDS011;2605;49.770;9.868;2023-11-21T08:59:48;19.90;;;12.37;;
5171;SDS011;2605;49.770;9.868;2023-11-21T09:02:13;19.60;;;11.30;;
5171;SDS011;2605;49.770;9.868;2023-11-21T09:04:39;28.90;;;12.80;;
5171;SDS011;2605;49.770;9.868;2023-11-21T09:07:04;21.30;;;10.80;;
5171;SDS011;2605;49.770;9.868;2023-11-21T09:09:30;21.30;;;11.53;;
5171;SDS011;2605;49.770;9.868;2023-11-21T09:11:55;22.23;;;12.40;;
5171;SDS011;2605;49.770;9.868;2023-11-21T09:14:21;21.10;;;11.77;;
5171;SDS011;2605;49.770;9.868;2023-11-21T09:16:47;16.80;;;11.43;;
5171;SDS011;2605;49.770;9.868;2023-11-21T09:19:12;13.07;;;9.67;;
5171;SDS011;2605;49.770;9.868;2023-11-21T09:21:39;20.20;;;11.30;;
5171;SDS011;2605;49.770;9.868;2023-11-21T09:24:04;18.40;;;10.90;;
5171;SDS011;2605;49.770;9.868;2023-11-21T09:26:30;16.67;;;10.17;;
5171;SDS011;2605;49.770;9.868;2023-11-21T09:28:55;17.83;;;10.30;;
5171;SDS011;2605;49.770;9.868;2023-11-21T09:31:21;12.97;;;7.63;;
5171;SDS011;2605;49.770;9.868;2023-11-21T09:33:48;18.60;;;9.93;;
5171;SDS011;2605;49.770;9.868;2023-11-21T09:36:14;12.70;;;9.17;;
5171;SDS011;2605;49.770;9.868;2023-11-21T09:38:40;16.53;;;9.70;;
5171;SDS011;2605;49.770;9.868;2023-11-21T09:41:08;21.53;;;10.30;;
5171;SDS011;2605;49.770;9.868;2023-11-21T09:44:00;15.30;;;9.83;;
5171;SDS011;2605;49.770;9.868;2023-11-21T09:46:28;16.37;;;10.40;;
5171;SDS011;2605;49.770;9.868;2023-11-21T09:48:54;19.47;;;9.53;;
5171;SDS011;2605;49.770;9.868;2023-11-21T09:51:23;11.23;;;7.80;;
5171;SDS011;2605;49.770;9.868;2023-11-21T09:53:54;14.03;;;8.63;;
5171;SDS011;2605;49.770;9.868;2023-11-21T09:56:23;12.53;;;9.00;;
5171;SDS011;2605;49.770;9.868;2023-11-21T09:58:52;13.33;;;9.90;;
5171;SDS011;2605;49.770;9.868;2023-11-21T10:01:18;14.63;;;8.57;;
5171;SDS011;2605;49.770;9.868;2023-11-21T10:03:45;10.27;;;7.90;;
5171;SDS011;2605;49.770;9.868;2023-11-21T10:06:12;9.10;;;7.90;;
5171;SDS011;2605;49.770;9.868;2023-11-21T10:08:39;10.40;;;9.30;;
5171;SDS011;2605;49.770;9.868;2023-11-21T10:11:05;11.87;;;7.93;;
5171;SDS011;2605;49.770;9.868;2023-11-21T10:13:36;11.37;;;6.80;;
5171;SDS011;2605;49.770;9.868;2023-11-21T10:16:02;8.07;;;6.47;;
5171;SDS011;2605;49.770;9.868;2023-11-21T10:18:30;6.93;;;5.10;;
5171;SDS011;2605;49.770;9.868;2023-11-21T10:20:59;7.37;;;6.53;;
5171;SDS011;2605;49.770;9.868;2023-11-21T10:23:25;8.93;;;5.80;;
5171;SDS011;2605;49.770;9.868;2023-11-21T10:25:51;7.80;;;6.77;;
5171;SDS011;2605;49.770;9.868;2023-11-21T10:28:17;7.70;;;6.73;;
5171;SDS011;2605;49.770;9.868;2023-11-21T10:30:43;9.00;;;6.10;;
5171;SDS011;2605;49.770;9.868;2023-11-21T10:33:09;5.43;;;4.93;;
5171;SDS011;2605;49.770;9.868;2023-11-21T10:35:42;6.07;;;4.80;;
5171;SDS011;2605;49.770;9.868;2023-11-21T10:38:19;9.53;;;6.07;;
5171;SDS011;2605;49.770;9.868;2023-11-21T10:40:48;7.27;;;5.80;;
5171;SDS011;2605;49.770;9.868;2023-11-21T10:43:14;8.77;;;6.23;;
5171;SDS011;2605;49.770;9.868;2023-11-21T10:45:40;5.17;;;4.67;;
5171;SDS011;2605;49.770;9.868;2023-11-21T10:48:10;5.87;;;4.70;;
5171;SDS011;2605;49.770;9.868;2023-11-21T10:50:42;7.50;;;4.80;;
5171;SDS011;2605;49.770;9.868;2023-11-21T10:53:09;6.57;;;4.67;;
5171;SDS011;2605;49.770;9.868;2023-11-21T10:55:36;7.57;;;5.00;;
5171;SDS011;2605;49.770;9.868;2023-11-21T10:58:02;6.20;;;5.03;;
5171;SDS011;2605;49.770;9.868;2023-11-21T11:00:30;4.57;;;4.17;;
5171;SDS011;2605;49.770;9.868;2023-11-21T11:02:56;5.33;;;4.80;;
5171;SDS011;2605;49.770;9.868;2023-11-21T11:05:24;5.87;;;3.37;;
5171;SDS011;2605;49.770;9.868;2023-11-21T11:08:06;5.80;;;3.83;;
5171;SDS011;2605;49.770;9.868;2023-11-21T11:10:37;5.77;;;4.00;;
5171;SDS011;2605;49.770;9.868;2023-11-21T11:13:03;3.60;;;3.30;;
5171;SDS011;2605;49.770;9.868;2023-11-21T11:15:31;7.20;;;4.00;;
5171;SDS011;2605;49.770;9.868;2023-11-21T11:17:57;4.23;;;3.83;;
5171;SDS011;2605;49.770;9.868;2023-11-21T11:20:23;4.10;;;3.70;;
5171;SDS011;2605;49.770;9.868;2023-11-21T11:28:47;3.80;;;3.43;;
5171;SDS011;2605;49.770;9.868;2023-11-21T11:31:27;4.67;;;3.73;;
5171;SDS011;2605;49.770;9.868;2023-11-21T11:37:07;5.53;;;4.10;;
5171;SDS011;2605;49.770;9.868;2023-11-21T11:39:37;4.23;;;3.47;;
5171;SDS011;2605;49.770;9.868;2023-11-21T11:42:08;4.90;;;4.07;;
5171;SDS011;2605;49.770;9.868;2023-11-21T11:47:29;6.20;;;3.17;;
5171;SDS011;2605;49.770;9.868;2023-11-21T11:52:48;4.03;;;2.17;;
5171;SDS011;2605;49.770;9.868;2023-11-21T11:55:17;4.80;;;2.30;;
5171;SDS011;2605;49.770;9.868;2023-11-21T11:57:45;2.57;;;2.37;;
5171;SDS011;2605;49.770;9.868;2023-11-21T12:00:21;2.80;;;2.17;;
5171;SDS011;2605;49.770;9.868;2023-11-21T12:02:55;2.10;;;2.00;;
5171;SDS011;2605;49.770;9.868;2023-11-21T12:05:25;6.17;;;2.60;;
5171;SDS011;2605;49.770;9.868;2023-11-21T12:07:56;3.13;;;2.43;;
5171;SDS011;2605;49.770;9.868;2023-11-21T12:13:00;2.53;;;1.90;;
5171;SDS011;2605;49.770;9.868;2023-11-21T12:15:27;2.13;;;1.93;;
5171;SDS011;2605;49.770;9.868;2023-11-21T12:17:56;2.20;;;2.00;;
5171;SDS011;2605;49.770;9.868;2023-11-21T12:20:29;2.10;;;2.00;;
5171;SDS011;2605;49.770;9.868;2023-11-21T12:22:56;2.03;;;1.87;;
5171;SDS011;2605;49.770;9.868;2023-11-21T12:25:27;6.50;;;2.67;;
5171;SDS011;2605;49.770;9.868;2023-11-21T12:27:54;2.30;;;2.10;;
5171;SDS011;2605;49.770;9.868;2023-11-21T12:30:22;1.93;;;1.50;;
5171;SDS011;2605;49.770;9.868;2023-11-21T12:32:50;2.77;;;2.40;;
5171;SDS011;2605;49.770;9.868;2023-11-21T12:35:18;2.80;;;1.90;;
5171;SDS011;2605;49.770;9.868;2023-11-21T12:37:45;3.93;;;2.20;;
5171;SDS011;2605;49.770;9.868;2023-11-21T12:40:12;5.70;;;2.47;;
5171;SDS011;2605;49.770;9.868;2023-11-21T12:42:40;2.97;;;2.20;;
5171;SDS011;2605;49.770;9.868;2023-11-21T12:45:08;3.57;;;2.43;;
5171;SDS011;2605;49.770;9.868;2023-11-21T12:47:40;2.40;;;1.67;;
5171;SDS011;2605;49.770;9.868;2023-11-21T12:50:07;4.20;;;2.40;;
5171;SDS011;2605;49.770;9.868;2023-11-21T12:52:39;2.93;;;1.83;;
5171;SDS011;2605;49.770;9.868;2023-11-21T12:55:06;2.33;;;2.10;;
5171;SDS011;2605;49.770;9.868;2023-11-21T12:57:34;4.43;;;1.40;;
5171;SDS011;2605;49.770;9.868;2023-11-21T13:00:03;1.60;;;1.50;;
5171;SDS011;2605;49.770;9.868;2023-11-21T13:02:37;2.33;;;1.80;;
5171;SDS011;2605;49.770;9.868;2023-11-21T13:05:03;1.77;;;1.63;;
5171;SDS011;2605;49.770;9.868;2023-11-21T13:07:40;2.40;;;1.60;;
5171;SDS011;2605;49.770;9.868;2023-11-21T13:10:12;2.13;;;1.93;;
5171;SDS011;2605;49.770;9.868;2023-11-21T13:12:42;3.30;;;2.07;;
5171;SDS011;2605;49.770;9.868;2023-11-21T13:15:13;2.07;;;1.87;;
5171;SDS011;2605;49.770;9.868;2023-11-21T13:17:39;4.97;;;1.60;;
5171;SDS011;2605;49.770;9.868;2023-11-21T13:20:05;1.47;;;1.37;;
5171;SDS011;2605;49.770;9.868;2023-11-21T13:22:34;2.57;;;1.70;;
5171;SDS011;2605;49.770;9.868;2023-11-21T13:25:00;4.53;;;2.13;;
5171;SDS011;2605;49.770;9.868;2023-11-21T13:27:32;1.60;;;1.50;;
5171;SDS011;2605;49.770;9.868;2023-11-21T13:29:59;3.00;;;1.80;;
5171;SDS011;2605;49.770;9.868;2023-11-21T13:32:24;1.90;;;1.50;;
5171;SDS011;2605;49.770;9.868;2023-11-21T13:34:50;2.70;;;1.30;;
5171;SDS011;2605;49.770;9.868;2023-11-21T13:37:19;1.90;;;1.80;;
5171;SDS011;2605;49.770;9.868;2023-11-21T13:39:44;2.20;;;1.47;;
5171;SDS011;2605;49.770;9.868;2023-11-21T13:42:14;1.70;;;1.60;;
5171;SDS011;2605;49.770;9.868;2023-11-21T13:44:41;2.60;;;1.90;;
5171;SDS011;2605;49.770;9.868;2023-11-21T13:47:11;1.20;;;1.10;;
5171;SDS011;2605;49.770;9.868;2023-11-21T13:49:37;1.67;;;1.03;;
5171;SDS011;2605;49.770;9.868;2023-11-21T13:52:05;3.00;;;1.80;;
5171;SDS011;2605;49.770;9.868;2023-11-21T13:54:32;1.60;;;1.50;;
5171;SDS011;2605;49.770;9.868;2023-11-21T13:56:58;1.73;;;1.27;;
5171;SDS011;2605;49.770;9.868;2023-11-21T13:59:25;1.17;;;1.07;;
5171;SDS011;2605;49.770;9.868;2023-11-21T14:01:53;1.77;;;1.37;;
5171;SDS011;2605;49.770;9.868;2023-11-21T14:04:24;2.27;;;1.60;;
5171;SDS011;2605;49.770;9.868;2023-11-21T14:07:08;2.90;;;1.67;;
5171;SDS011;2605;49.770;9.868;2023-11-21T14:09:50;1.40;;;1.30;;
5171;SDS011;2605;49.770;9.868;2023-11-21T14:12:17;1.73;;;1.50;;
5171;SDS011;2605;49.770;9.868;2023-11-21T14:14:43;1.63;;;1.53;;
5171;SDS011;2605;49.770;9.868;2023-11-21T14:17:10;1.50;;;1.40;;
5171;SDS011;2605;49.770;9.868;2023-11-21T14:19:35;2.17;;;1.97;;
5171;SDS011;2605;49.770;9.868;2023-11-21T14:22:05;4.17;;;2.27;;
5171;SDS011;2605;49.770;9.868;2023-11-21T14:24:32;7.40;;;2.30;;
5171;SDS011;2605;49.770;9.868;2023-11-21T14:26:58;4.27;;;2.60;;
5171;SDS011;2605;49.770;9.868;2023-11-21T14:29:24;8.37;;;2.20;;
5171;SDS011;2605;49.770;9.868;2023-11-21T14:31:50;2.10;;;2.00;;
5171;SDS011;2605;49.770;9.868;2023-11-21T14:34:16;2.53;;;1.73;;
5171;SDS011;2605;49.770;9.868;2023-11-21T14:36:42;3.57;;;2.03;;
5171;SDS011;2605;49.770;9.868;2023-11-21T14:39:09;2.10;;;1.90;;
5171;SDS011;2605;49.770;9.868;2023-11-21T14:41:46;2.03;;;1.70;;
5171;SDS011;2605;49.770;9.868;2023-11-21T14:44:11;2.17;;;2.07;;
5171;SDS011;2605;49.770;9.868;2023-11-21T14:46:38;2.80;;;2.20;;
5171;SDS011;2605;49.770;9.868;2023-11-21T14:49:08;2.23;;;2.00;;
5171;SDS011;2605;49.770;9.868;2023-11-21T14:51:49;4.50;;;2.13;;
5171;SDS011;2605;49.770;9.868;2023-11-21T14:54:25;1.50;;;1.40;;
5171;SDS011;2605;49.770;9.868;2023-11-21T14:57:05;1.13;;;0.97;;
5171;SDS011;2605;49.770;9.868;2023-11-21T14:59:35;6.93;;;1.67;;
5171;SDS011;2605;49.770;9.868;2023-11-21T15:02:01;23.40;;;4.30;;
5171;SDS011;2605;49.770;9.868;2023-11-21T15:04:39;5.40;;;2.43;;
5171;SDS011;2605;49.770;9.868;2023-11-21T15:07:07;3.07;;;2.17;;
5171;SDS011;2605;49.770;9.868;2023-11-21T15:09:33;5.20;;;2.80;;
5171;SDS011;2605;49.770;9.868;2023-11-21T15:11:59;3.87;;;2.87;;
5171;SDS011;2605;49.770;9.868;2023-11-21T15:14:50;2.30;;;1.93;;
5171;SDS011;2605;49.770;9.868;2023-11-21T15:17:21;2.73;;;2.27;;
5171;SDS011;2605;49.770;9.868;2023-11-21T15:19:50;1.80;;;1.67;;
5171;SDS011;2605;49.770;9.868;2023-11-21T15:22:16;7.13;;;2.80;;
5171;SDS011;2605;49.770;9.868;2023-11-21T15:24:42;10.33;;;3.63;;
5171;SDS011;2605;49.770;9.868;2023-11-21T15:27:11;11.07;;;3.57;;